Stations météo

Publicité
Besancon, France (7288): Température de l'air & dewpoint: 11.02.2019 16:00:00 - 17.02.2019 16:00:00 (CET)Besancon, France (7288): Température de l'air 5cm: 11.02.2019 16:00:00 - 17.02.2019 16:00:00 (CET)Besancon, France (7288): Température de l'air -20cm & Température de l'air -100cm: 11.02.2019 16:00:00 - 17.02.2019 16:00:00 (CET)Besancon, France (7288): Vitesse du vent & gusts: 11.02.2019 16:00:00 - 17.02.2019 16:00:00 (CET)Besancon, France (7288): Direction du vent: 11.02.2019 16:00:00 - 17.02.2019 16:00:00 (CET)Besancon, France (7288): reduced air pressure: 11.02.2019 16:00:00 - 17.02.2019 16:00:00 (CET)Besancon, France (7288): Ensoleillement: 11.02.2019 16:00:00 - 17.02.2019 16:00:00 (CET)Besancon, France (7288): Quantités de précipitations: 11.02.2019 16:00:00 - 17.02.2019 16:00:00 (CET)
Date & Time tt [°C] td [°C] tt 5cm [°C] tt -20cm [°C] tt -100cm [°C] ff [km/h] ff [knt] fx [km/h] fx [knt] dd ppp [hPa] sd [min] rr [mm]
17.02.2019 16:00:00 18,7 -2,9 21,6 4,4 6,4 10 6 27 14 SW 1022,0 60 0,0
17.02.2019 15:00:00 18,7 -3,5 19,7 4,2 6,4 13 7 28 15 SW 1022,3 60 0,0
17.02.2019 14:00:00 17,2 -0,1 24,8 4,1 6,4 6 3 11 6 WSW 1023,1 60 0,0
17.02.2019 13:00:00 14,8 -0,9 22,9 4,1 6,4 4 2 15 8 W 1024,3 60 0,0
17.02.2019 12:00:00 14,8 -1,8 22,1 4,1 6,4 4 2 12 7 SSW 1024,7 60 0,0
17.02.2019 11:00:00 11,9 0,3 15,9 4,1 6,4 0 0 3 1 N 1025,4 60 0,0
17.02.2019 10:00:00 6,9 0,1 0,9 4,3 6,4 0 0 0 0 N 1026,2 60 0,0
17.02.2019 09:00:00 0,9 -2,7 -4,6 4,4 6,4 0 0 5 3 N 1027,2 24 0,0
17.02.2019 08:00:00 -0,7 -3,1 -5,2 4,5 6,4 0 0 5 3 N 1027,4 0 0,0
17.02.2019 07:00:00 -0,7 -2,6 -5,2 4,5 6,4 0 0 5 3 N 1027,2 0 0,0
17.02.2019 06:00:00 -0,5 -1,9 -5,0 4,6 6,4 2 1 5 3 NE 1027,3 0 0,0
17.02.2019 05:00:00 -0,3 -2,0 -4,8 4,7 6,4 0 0 4 2 N 1027,3 0 0,0
17.02.2019 04:00:00 0,4 -1,5 -4,4 4,8 6,4 0 0 0 0 N 1027,4 0 0,0
17.02.2019 03:00:00 1,2 -0,9 -3,9 4,8 6,4 0 0 5 3 N 1027,5 0 0,0
17.02.2019 02:00:00 1,9 -0,5 -3,6 4,9 6,4 0 0 7 4 N 1027,6 0 0,0
17.02.2019 01:00:00 2,3 -0,6 -2,8 4,9 6,4 0 0 5 3 N 1027,9 0 0,0
17.02.2019 00:00:00 3,1 -0,4 -1,9 5,0 6,4 3 1 6 4 NNE 1027,9 0 0,0
16.02.2019 23:00:00 4,0 0,0 -1,1 4,9 6,3 3 1 6 4 NE 1027,9 0 0,0
16.02.2019 22:00:00 5,1 0,5 -0,7 5,0 6,4 0 0 5 3 N 1027,8 0 0,0
16.02.2019 21:00:00 5,6 0,9 0,0 4,9 6,4 3 2 6 3 NNE 1027,8 0 0,0
16.02.2019 20:00:00 8,0 1,8 1,2 4,8 6,3 0 0 4 2 N 1027,7 0 0,0
16.02.2019 19:00:00 11,1 1,6 3,4 4,7 6,4 0 0 5 3 N 1027,3 0 0,0
16.02.2019 18:00:00 14,5 1,4 8,6 4,5 6,4 2 1 6 3 NW 1026,6 33 0,0
16.02.2019 17:00:00 17,7 -0,1 19,4 4,3 6,3 3 2 10 5 W 1026,1 60 0,0
16.02.2019 16:00:00 17,9 -0,4 23,0 4,2 6,4 5 3 11 6 WNW 1026,4 60 0,0
16.02.2019 15:00:00 17,7 -0,6 20,9 4,0 6,4 4 2 12 6 WNW 1026,7 60 0,0
16.02.2019 14:00:00 17,4 -0,8 25,1 3,9 6,4 5 3 10 6 WSW 1027,3 60 0,0
16.02.2019 13:00:00 15,6 -1,5 22,0 3,8 6,4 3 2 8 5 S 1028,4 60 0,0
16.02.2019 12:00:00 13,6 0,6 22,6 3,9 6,4 2 1 4 2 SW 1029,3 60 0,0
16.02.2019 11:00:00 9,7 1,3 14,9 3,9 6,4 0 0 2 1 N 1029,8 60 0,0
16.02.2019 10:00:00 5,1 0,7 -1,2 4,0 6,4 0 0 2 1 N 1030,5 60 0,0
16.02.2019 09:00:00 -0,1 -1,0 -5,0 4,1 6,3 0 0 3 2 N 1031,6 20 0,0
16.02.2019 08:00:00 -0,9 -1,9 -5,5 4,2 6,4 0 0 2 1 N 1031,3 0 0,0
16.02.2019 07:00:00 -0,2 -1,3 -5,2 4,3 6,4 0 0 6 3 N 1030,7 0 0,0
16.02.2019 06:00:00 0,1 -0,8 -4,8 4,3 6,3 4 2 6 3 NNE 1030,6 0 0,0
16.02.2019 05:00:00 0,1 -0,9 -4,6 4,4 6,4 2 1 3 2 NE 1030,7 0 0,0
16.02.2019 04:00:00 0,5 -0,6 -4,4 4,4 6,4 0 0 4 2 N 1030,7 0 0,0
16.02.2019 03:00:00 1,9 0,6 -3,6 4,5 6,4 0 0 4 2 N 1030,7 0 0,0
16.02.2019 02:00:00 2,3 0,5 -2,9 4,6 6,4 2 1 6 3 NNE 1030,5 0 0,0
16.02.2019 01:00:00 3,1 1,1 -2,5 4,6 6,4 0 0 4 2 N 1030,4 0 0,0
16.02.2019 00:00:00 3,5 1,2 -2,2 4,6 6,4 0 0 4 2 N 1030,1 0 0,0
15.02.2019 23:00:00 4,1 1,3 -1,5 4,7 6,4 0 0 6 3 N 1030,0 0 0,0
15.02.2019 22:00:00 4,6 0,9 -1,3 4,6 6,3 3 2 5 3 NNE 1030,0 0 0,0
15.02.2019 21:00:00 5,8 1,1 -0,6 4,7 6,4 0 0 3 1 N 1029,9 0 0,0
15.02.2019 20:00:00 6,6 1,3 0,0 4,6 6,4 0 0 6 3 N 1029,7 0 0,0
15.02.2019 19:00:00 8,7 1,8 1,2 4,5 6,4 0 0 5 3 N 1029,5 0 0,0
15.02.2019 18:00:00 12,5 0,6 4,5 4,3 6,4 0 0 5 3 N 1029,0 24 0,0
15.02.2019 17:00:00 15,1 -0,3 18,3 4,1 6,4 3 2 7 4 N 1028,9 60 0,0
15.02.2019 16:00:00 15,5 -0,7 22,5 3,9 6,4 3 2 10 6 N 1029,1 60 0,2
15.02.2019 15:00:00 15,3 -0,1 18,9 3,8 6,4 3 1 8 4 NNW 1029,6 60 0,0
15.02.2019 14:00:00 14,6 0,1 23,8 3,7 6,4 3 2 9 5 N 1030,3 60 0,0
15.02.2019 13:00:00 13,5 -0,9 22,5 3,7 6,4 2 1 5 3 NNE 1031,2 60 0,0
15.02.2019 12:00:00 11,8 -1,4 20,6 3,7 6,4 0 0 5 3 N 1032,0 60 0,0
15.02.2019 11:00:00 8,2 -0,8 16,2 3,8 6,4 0 0 5 3 N 1032,8 60 0,0
15.02.2019 10:00:00 4,7 -1,1 -1,2 3,9 6,4 0 0 3 2 N 1033,3 60 0,0
15.02.2019 09:00:00 0,3 -1,3 -4,5 3,9 6,4 0 0 4 2 N 1033,9 20 0,0
15.02.2019 08:00:00 -0,1 -1,7 -5,4 4,0 6,4 0 0 4 2 N 1033,9 0 0,0
15.02.2019 07:00:00 0,1 -1,5 -4,9 4,1 6,4 0 0 4 2 N 1033,5 0 0,0
15.02.2019 06:00:00 0,6 -1,2 -4,6 4,1 6,4 0 0 3 1 N 1033,5 0 0,0
15.02.2019 05:00:00 1,0 -1,2 -3,7 4,2 6,4 0 0 4 2 N 1033,3 0 0,0
15.02.2019 04:00:00 2,0 -0,4 -2,9 4,3 6,4 0 0 4 2 N 1033,4 0 0,0
15.02.2019 03:00:00 2,2 -0,4 -2,6 4,4 6,4 0 0 6 3 N 1033,4 0 0,0
15.02.2019 02:00:00 2,6 -0,2 -3,0 4,4 6,4 2 1 5 3 NE 1033,4 0 0,0
15.02.2019 01:00:00 3,8 0,0 -2,2 4,4 6,4 0 0 5 3 N 1033,2 0 0,0
15.02.2019 00:00:00 4,6 0,4 -1,5 4,5 6,4 0 0 8 4 N 1033,4 0 0,0
14.02.2019 23:00:00 4,8 0,0 -1,3 4,5 6,4 0 0 5 3 N 1033,3 0 0,0
14.02.2019 22:00:00 5,9 -0,2 -0,5 4,4 6,4 0 0 3 1 N 1033,1 0 0,0
14.02.2019 21:00:00 6,9 -1,0 -0,2 4,4 6,4 0 0 3 2 N 1033,1 0 0,0
14.02.2019 20:00:00 7,4 -1,8 -0,3 4,4 6,4 0 0 4 2 N 1033,2 0 0,0
14.02.2019 19:00:00 7,6 -0,1 0,5 4,3 6,4 2 1 4 2 NE 1033,2 0 0,0
14.02.2019 18:00:00 10,9 -0,6 3,2 4,1 6,4 3 2 9 5 NNE 1032,7 11 0,0
14.02.2019 17:00:00 14,2 -1,1 16,6 3,9 6,4 3 2 14 7 ENE 1032,6 60 0,0
14.02.2019 16:00:00 14,1 -2,0 19,6 3,8 6,4 6 3 11 6 NNW 1033,4 60 0,0
14.02.2019 15:00:00 13,9 -1,3 17,2 3,7 6,4 3 2 10 5 N 1033,9 60 0,0
14.02.2019 14:00:00 13,5 -0,9 21,5 3,6 6,4 6 3 12 6 W 1034,6 60 0,0
14.02.2019 13:00:00 13,7 -2,3 22,7 3,6 6,4 3 1 6 3 SSE 1035,5 60 0,0
14.02.2019 12:00:00 9,9 -1,8 18,7 3,7 6,4 3 1 5 3 N 1036,4 60 0,0
14.02.2019 11:00:00 6,7 -1,0 12,4 3,7 6,4 2 1 6 3 N 1037,0 60 0,0
14.02.2019 10:00:00 3,2 -0,4 -3,5 3,8 6,4 0 0 5 3 N 1037,4 60 0,0
14.02.2019 09:00:00 -1,2 -1,9 -5,9 3,9 6,4 0 0 3 2 N 1038,2 17 0,0
14.02.2019 08:00:00 -2,2 -2,9 -6,5 4,0 6,4 0 0 3 2 N 1037,9 0 0,0
14.02.2019 07:00:00 -2,1 -2,8 -6,4 4,1 6,4 2 1 5 3 NNE 1037,3 0 0,0
14.02.2019 06:00:00 -1,5 -2,2 -6,0 4,1 6,4 0 0 4 2 N 1037,6 0 0,0
14.02.2019 05:00:00 -1,6 -2,3 -6,1 4,2 6,4 0 0 5 3 N 1037,3 0 0,0
14.02.2019 04:00:00 -1,4 -2,0 -5,5 4,3 6,4 0 0 3 2 N 1037,3 0 0,0
14.02.2019 03:00:00 -0,7 -1,3 -5,3 4,3 6,4 2 1 4 2 NNE 1037,6 0 0,0
14.02.2019 02:00:00 -1,4 -2,1 -5,2 4,4 6,4 0 0 4 2 N 1037,6 0 0,0
14.02.2019 01:00:00 -0,9 -1,6 -5,0 4,5 6,4 3 1 5 3 NE 1037,3 0 0,0
14.02.2019 00:00:00 -0,5 -1,2 -4,4 4,5 6,4 0 0 0 0 N 1036,7 0 0,0
13.02.2019 23:00:00 0,2 -0,7 -3,9 4,5 6,4 0 0 4 2 N 1036,6 0 0,0
13.02.2019 22:00:00 0,3 -0,8 -3,6 4,5 6,4 2 1 4 2 NE 1036,6 0 0,0
13.02.2019 21:00:00 1,4 -0,2 -2,9 4,5 6,4 0 0 4 2 N 1036,3 0 0,0
13.02.2019 20:00:00 2,6 0,2 -1,7 4,5 6,4 0 0 2 1 N 1036,0 0 0,0
13.02.2019 19:00:00 3,9 0,4 -0,7 4,4 6,4 0 0 4 2 N 1036,1 0 0,0
13.02.2019 18:00:00 6,1 0,8 2,6 4,3 6,4 0 0 11 6 N 1035,4 32 0,0
13.02.2019 17:00:00 8,4 1,1 10,1 4,1 6,5 5 3 11 6 W 1034,9 60 0,0
13.02.2019 16:00:00 9,3 1,0 13,6 4,0 6,4 4 2 12 6 WSW 1034,9 60 0,0
13.02.2019 15:00:00 9,1 1,3 12,4 3,9 6,4 6 3 11 6 W 1035,3 60 0,0
13.02.2019 14:00:00 8,7 0,4 15,4 3,8 6,4 3 2 12 7 WSW 1035,5 60 0,0
13.02.2019 13:00:00 7,4 -0,1 15,8 3,9 6,4 5 3 10 5 W 1036,1 60 0,0
13.02.2019 12:00:00 6,8 -0,2 14,2 3,9 6,4 2 1 6 4 S 1036,5 60 0,0
13.02.2019 11:00:00 4,4 -1,2 10,3 4,0 6,4 2 1 7 4 NNE 1036,7 60 0,0
13.02.2019 10:00:00 2,0 -1,3 -3,4 4,1 6,4 0 0 4 2 N 1036,9 60 0,0
13.02.2019 09:00:00 -0,4 -1,7 -5,0 4,1 6,4 0 0 7 4 N 1037,4 19 0,0
13.02.2019 08:00:00 -0,9 -2,0 -5,0 4,3 6,4 0 0 7 4 N 1037,0 0 0,0
13.02.2019 07:00:00 -1,2 -2,3 -4,4 4,3 6,4 4 2 10 6 NNE 1036,9 0 0,0
13.02.2019 06:00:00 -0,5 -1,5 -3,5 4,4 6,4 4 2 15 8 NNE 1036,3 0 0,0
13.02.2019 05:00:00 -0,2 -1,0 -2,6 4,5 6,4 8 4 18 10 NNE 1036,2 0 0,0
13.02.2019 04:00:00 -0,6 -1,2 -3,7 4,6 6,4 9 5 14 8 NNE 1036,3 0 0,0
13.02.2019 03:00:00 -0,9 -1,3 -3,8 4,7 6,3 5 3 14 8 NE 1036,7 0 0,0
13.02.2019 02:00:00 -0,7 -1,1 -5,0 4,8 6,3 5 3 11 6 NE 1037,0 0 0,0
13.02.2019 01:00:00 -0,4 -0,8 -4,9 4,8 6,3 5 3 11 6 NNE 1037,4 0 0,0
13.02.2019 00:00:00 -0,4 -0,8 -5,1 4,9 6,3 3 2 11 6 NE 1037,8 0 0,0
12.02.2019 23:00:00 -0,6 -1,2 -4,6 5,0 6,3 0 0 4 2 N 1038,0 0 0,0
12.02.2019 22:00:00 -0,5 -1,1 -4,9 5,0 6,4 2 1 5 3 NNE 1038,0 0 0,0
12.02.2019 21:00:00 -0,2 -1,0 -4,2 5,1 6,3 2 1 4 2 NNE 1038,1 0 0,0
12.02.2019 20:00:00 0,6 -0,4 -3,1 5,1 6,3 3 1 6 4 NNE 1037,8 0 0,0
12.02.2019 19:00:00 1,6 0,1 -2,2 5,0 6,3 2 1 5 3 ENE 1037,6 0 0,0
12.02.2019 18:00:00 2,9 0,3 -0,4 5,0 6,3 4 2 11 6 NNE 1037,1 12 0,0
12.02.2019 17:00:00 4,6 1,3 4,5 4,9 6,3 3 1 13 7 NNE 1036,7 23 0,0
12.02.2019 16:00:00 5,1 1,9 7,3 4,8 6,3 5 3 11 6 NNE 1036,9 0 0,0
12.02.2019 15:00:00 4,9 2,6 6,8 4,7 6,4 4 2 9 5 N 1037,1 3 0,0
12.02.2019 14:00:00 3,8 2,6 5,7 4,6 6,3 6 3 12 7 NNW 1037,7 0 0,0
12.02.2019 13:00:00 3,4 2,8 5,8 4,6 6,3 3 2 7 4 NW 1037,9 4 0,0
12.02.2019 12:00:00 2,2 1,8 4,6 4,6 6,3 5 3 11 6 NNW 1038,2 4 0,0
12.02.2019 11:00:00 2,6 2,2 3,2 4,7 6,3 3 1 7 4 W 1037,3 12 0,0
12.02.2019 10:00:00 1,3 1,0 0,0 4,8 6,3 0 0 4 2 N 1037,2 29 0,0
12.02.2019 09:00:00 -0,6 -0,9 -2,4 4,8 6,3 2 1 4 2 SW 1037,1 0 0,0
12.02.2019 08:00:00 -1,1 -1,5 -4,0 4,9 6,2 0 0 3 1 N 1036,9 0 0,0
12.02.2019 07:00:00 -0,4 -0,8 -2,4 5,0 6,2 0 0 3 2 N 1036,1 0 0,0
12.02.2019 06:00:00 -0,1 -0,5 -1,2 5,0 6,2 3 1 5 3 NNE 1036,0 0 0,0
12.02.2019 05:00:00 -0,3 -0,7 -3,2 5,1 6,2 3 1 5 3 NNE 1035,7 0 0,0
12.02.2019 04:00:00 0,9 0,3 -2,5 5,1 6,2 0 0 3 2 N 1035,5 0 0,0
12.02.2019 03:00:00 1,7 1,1 -1,0 5,2 6,2 0 0 3 1 N 1035,2 0 0,0
12.02.2019 02:00:00 2,4 1,8 1,0 5,2 6,2 0 0 4 2 N 1034,6 0 0,0
12.02.2019 01:00:00 2,5 1,9 1,5 5,3 6,2 0 0 2 1 N 1034,4 0 0,0
12.02.2019 00:00:00 2,6 1,9 -0,1 5,3 6,2 0 0 8 4 N 1033,7 0 0,0
11.02.2019 23:00:00 2,1 1,2 -0,8 5,4 6,2 0 0 3 2 N 1033,1 0 0,0
11.02.2019 22:00:00 3,3 2,3 0,7 5,4 6,2 2 1 10 5 ESE 1032,2 0 0,0
11.02.2019 21:00:00 4,1 3,2 2,0 5,4 6,2 6 3 13 7 NNW 1031,7 0 0,0
11.02.2019 20:00:00 3,8 2,8 2,1 5,4 6,2 0 0 6 3 N 1030,8 0 0,0
11.02.2019 19:00:00 4,3 3,1 3,8 5,3 6,2 4 2 9 5 WSW 1029,7 0 0,2
11.02.2019 18:00:00 4,7 3,4 4,0 5,3 6,2 3 2 14 8 WSW 1028,5 0 1,0
11.02.2019 17:00:00 5,0 2,9 4,7 5,2 6,2 6 3 17 9 SSW 1027,5 0 0,0
11.02.2019 16:00:00 5,2 2,7 4,8 5,1 6,2 8 4 22 12 WSW 1026,7 2 0,2

tt = Température de l'air
td = dewpoint
tt 5cm = Température de l'air 5cm
tt -20cm = Température de l'air -20cm
tt -100cm = Température de l'air -100cm
ff = Vitesse du vent
fx = gusts
dd = Direction du vent
ppp = reduced air pressure
sd = Ensoleillement
rr = Quantités de précipitations

stations d'obs. à proximité